Time;durP1;ratioP1;P1;durP2;ratioP2;P2;SDS_P1;SDS_P2;PMS_P1;PMS_P2;Temp;Humidity;BMP_temperature;BMP_pressure;BME280_temperature;BME280_humidity;BME280_pressure;Samples;Min_cycle;Max_cycle;Signal;HPM_P1;HPM_P2
2023/01/14 00:01:25;;;;;;;3.92;1.20;;;8.10;96.70;;;;;;4991963;28;20042;-68
2023/01/14 00:03:52;;;;;;;3.55;1.10;;;8.00;96.40;;;;;;4988413;28;20037;-68
2023/01/14 00:06:20;;;;;;;5.53;1.30;;;8.20;96.30;;;;;;4994412;28;20037;-67
2023/01/14 00:08:46;;;;;;;7.18;1.40;;;8.20;95.60;;;;;;4991950;28;20023;-66
2023/01/14 00:11:14;;;;;;;3.85;1.05;;;8.10;95.70;;;;;;4995430;28;20038;-66
2023/01/14 00:13:41;;;;;;;6.57;1.23;;;8.00;96.20;;;;;;4992447;28;20061;-67
2023/01/14 00:16:10;;;;;;;4.70;0.93;;;8.00;96.50;;;;;;4996440;28;20041;-68
2023/01/14 00:18:36;;;;;;;2.80;1.10;;;8.00;96.40;;;;;;4991538;28;20044;-68
2023/01/14 00:21:06;;;;;;;1.20;0.95;;;8.10;95.90;;;;;;4994620;28;20048;-69
2023/01/14 00:23:33;;;;;;;4.85;1.00;;;8.10;96.40;;;;;;4991557;28;20034;-68
2023/01/14 00:26:02;;;;;;;4.85;0.90;;;8.20;96.00;;;;;;4988917;28;20046;-68
2023/01/14 00:28:28;;;;;;;8.90;1.17;;;8.30;95.90;;;;;;4993218;28;20033;-69
2023/01/14 00:31:01;;;;;;;2.17;0.80;;;8.30;96.10;;;;;;4994348;28;20049;-67
2023/01/14 00:33:27;;;;;;;2.88;1.02;;;8.40;95.70;;;;;;4986377;28;20049;-68
2023/01/14 00:35:54;;;;;;;2.30;1.10;;;8.50;95.80;;;;;;4992466;28;20041;-66
2023/01/14 00:38:20;;;;;;;7.32;1.27;;;8.40;96.10;;;;;;4989375;28;20029;-69
2023/01/14 00:40:46;;;;;;;6.28;1.33;;;8.30;96.10;;;;;;4990487;28;20057;-68
2023/01/14 00:43:12;;;;;;;5.38;1.20;;;8.40;96.10;;;;;;4991911;28;20038;-68
2023/01/14 00:45:37;;;;;;;3.80;1.08;;;8.30;96.20;;;;;;4989913;28;20859;-69
2023/01/14 00:48:03;;;;;;;4.07;1.92;;;8.10;96.70;;;;;;4995219;28;20073;-69
2023/01/14 00:50:29;;;;;;;2.33;1.13;;;8.10;96.80;;;;;;4998391;28;20029;-69
2023/01/14 00:52:55;;;;;;;5.03;1.00;;;8.20;96.70;;;;;;4995302;28;20034;-70
2023/01/14 00:55:22;;;;;;;3.90;1.00;;;8.20;96.50;;;;;;4988609;28;20034;-68
2023/01/14 00:57:48;;;;;;;4.97;1.10;;;8.30;96.80;;;;;;4993887;28;20036;-69
2023/01/14 01:00:14;;;;;;;2.00;1.00;;;8.40;96.50;;;;;;4990349;28;20811;-67
2023/01/14 01:02:40;;;;;;;3.83;1.10;;;8.40;96.60;;;;;;4989634;28;20033;-66
2023/01/14 01:05:06;;;;;;;4.45;0.90;;;8.30;96.70;;;;;;4989333;28;20064;-68
2023/01/14 01:07:32;;;;;;;3.42;1.40;;;8.20;96.80;;;;;;4995979;28;20025;-69
2023/01/14 01:09:57;;;;;;;4.28;1.50;;;8.30;97.10;;;;;;5007229;28;20041;-66
2023/01/14 01:12:23;;;;;;;3.03;1.15;;;8.40;96.60;;;;;;4989570;28;20045;-68
2023/01/14 01:14:49;;;;;;;6.05;1.35;;;8.50;96.70;;;;;;4993499;28;20504;-69
2023/01/14 01:17:15;;;;;;;6.22;1.08;;;8.40;96.40;;;;;;4989287;28;20348;-69
2023/01/14 01:19:40;;;;;;;4.13;1.10;;;8.30;96.60;;;;;;4987530;28;20631;-68
2023/01/14 01:22:08;;;;;;;2.63;1.20;;;8.20;97.00;;;;;;4984740;28;20051;-69
2023/01/14 01:24:33;;;;;;;2.47;1.20;;;8.40;96.80;;;;;;4989808;28;20030;-68
2023/01/14 01:26:59;;;;;;;6.32;1.55;;;8.30;96.00;;;;;;4993577;28;20037;-68
2023/01/14 01:29:25;;;;;;;9.02;1.27;;;8.40;96.10;;;;;;4988840;28;20034;-68
2023/01/14 01:31:51;;;;;;;6.18;0.90;;;8.40;96.00;;;;;;4994758;28;20105;-68
2023/01/14 01:34:16;;;;;;;5.60;0.90;;;8.50;95.80;;;;;;4992257;28;20042;-66
2023/01/14 01:36:42;;;;;;;2.20;1.00;;;8.50;95.70;;;;;;4993678;28;20116;-69
2023/01/14 01:39:08;;;;;;;4.10;1.75;;;8.50;95.70;;;;;;5009994;28;20034;-68
2023/01/14 01:41:34;;;;;;;7.05;0.95;;;8.50;95.80;;;;;;4994749;28;20424;-68
2023/01/14 01:44:12;;;;;;;2.92;1.20;;;8.50;95.70;;;;;;4988743;28;20038;-66
2023/01/14 01:46:40;;;;;;;1.13;0.80;;;8.70;95.50;;;;;;4989516;28;20038;-67
2023/01/14 01:49:38;;;;;;;6.18;0.85;;;8.80;95.20;;;;;;4992145;28;20026;-67
2023/01/14 01:52:23;;;;;;;5.18;0.85;;;8.80;94.70;;;;;;4978049;28;20776;-68
2023/01/14 01:54:57;;;;;;;3.88;1.20;;;8.90;94.80;;;;;;4988852;28;20096;-67
2023/01/14 01:57:23;;;;;;;5.43;0.93;;;9.00;94.30;;;;;;4984439;28;20030;-69
2023/01/14 01:59:54;;;;;;;5.45;1.40;;;8.90;94.30;;;;;;5007356;28;20057;-69
2023/01/14 02:02:21;;;;;;;6.97;1.30;;;8.90;94.50;;;;;;4990425;28;20087;-66
2023/01/14 02:04:47;;;;;;;5.13;1.02;;;8.80;94.30;;;;;;5008299;28;20034;-69
2023/01/14 02:07:20;;;;;;;4.32;1.00;;;8.70;95.00;;;;;;4983191;28;20081;-68
2023/01/14 02:09:49;;;;;;;4.50;1.00;;;8.70;95.00;;;;;;4990308;28;20034;-68
2023/01/14 02:12:36;;;;;;;5.30;0.93;;;8.70;94.80;;;;;;5006016;28;20030;-69
2023/01/14 02:15:14;;;;;;;2.25;0.90;;;8.60;95.30;;;;;;4988681;28;20041;-69
2023/01/14 02:17:57;;;;;;;3.30;1.20;;;8.60;95.00;;;;;;4989538;28;20671;-69
2023/01/14 02:20:32;;;;;;;4.90;1.20;;;8.60;95.30;;;;;;4989160;28;20104;-68
2023/01/14 02:23:37;;;;;;;3.75;0.80;;;8.50;95.50;;;;;;4993389;28;20023;-68
2023/01/14 02:26:29;;;;;;;3.00;1.05;;;8.60;95.50;;;;;;4987951;28;20035;-68
2023/01/14 02:29:33;;;;;;;1.70;0.80;;;8.60;95.50;;;;;;4989266;28;20030;-68
2023/01/14 02:32:14;;;;;;;6.95;1.27;;;8.60;95.60;;;;;;4985700;28;20046;-68
2023/01/14 02:35:10;;;;;;;2.50;0.90;;;8.60;95.50;;;;;;5006430;28;20034;-68
2023/01/14 02:37:46;;;;;;;4.68;1.88;;;8.60;95.50;;;;;;5009644;28;20437;-68
2023/01/14 02:40:20;;;;;;;4.43;1.25;;;8.70;95.70;;;;;;4996569;28;20038;-68
2023/01/14 02:46:00;;;;;;;5.05;1.20;;;8.60;95.70;;;;;;5001166;28;20103;-67
2023/01/14 02:48:28;;;;;;;7.95;1.10;;;8.50;95.50;;;;;;4993243;28;20030;-68
2023/01/14 02:50:55;;;;;;;6.35;0.80;;;8.40;96.00;;;;;;4993562;28;20121;-66
2023/01/14 02:53:21;;;;;;;3.42;0.77;;;8.40;96.00;;;;;;4991204;28;20045;-66
2023/01/14 02:55:49;;;;;;;2.58;0.90;;;8.50;95.80;;;;;;4995430;28;20150;-66
2023/01/14 02:58:27;;;;;;;1.88;0.77;;;8.50;95.80;;;;;;5008049;28;20034;-66
2023/01/14 03:00:53;;;;;;;4.82;1.10;;;8.60;95.70;;;;;;4998249;28;20057;-66
2023/01/14 03:03:46;;;;;;;2.95;1.17;;;8.60;95.10;;;;;;4989115;28;20065;-67
2023/01/14 03:06:21;;;;;;;5.82;1.33;;;8.70;95.20;;;;;;4991822;28;20078;-66
2023/01/14 03:08:46;;;;;;;6.18;1.33;;;8.80;95.10;;;;;;5010363;28;20052;-66
2023/01/14 03:11:12;;;;;;;5.85;1.20;;;8.80;94.90;;;;;;4989749;28;20037;-67
2023/01/14 03:13:50;;;;;;;6.10;1.17;;;8.80;94.90;;;;;;4994395;28;20042;-66
2023/01/14 03:16:28;;;;;;;5.40;0.90;;;9.00;94.80;;;;;;4991337;28;20034;-66
2023/01/14 03:19:00;;;;;;;1.40;0.80;;;9.00;94.70;;;;;;4997824;28;20042;-66
2023/01/14 03:21:33;;;;;;;4.07;1.20;;;9.10;94.80;;;;;;4991183;28;20096;-66
2023/01/14 03:24:22;;;;;;;14.45;1.50;;;9.00;95.20;;;;;;4989912;28;20128;-66
2023/01/14 03:26:51;;;;;;;4.85;1.30;;;9.00;95.50;;;;;;5010297;28;20022;-66
2023/01/14 03:29:24;;;;;;;2.97;1.00;;;9.00;95.30;;;;;;5012834;28;20038;-66
2023/01/14 03:31:55;;;;;;;2.63;1.00;;;9.00;95.50;;;;;;5010187;28;20045;-67
2023/01/14 03:34:28;;;;;;;3.40;1.10;;;9.00;95.30;;;;;;5015702;28;20129;-66
2023/01/14 03:36:57;;;;;;;1.95;0.75;;;9.00;95.40;;;;;;5008063;28;20133;-66
2023/01/14 03:39:24;;;;;;;4.10;1.17;;;9.00;95.30;;;;;;4992396;28;20037;-66
2023/01/14 03:44:54;;;;;;;7.68;1.80;;;9.00;95.60;;;;;;4992362;28;20121;-66
2023/01/14 03:47:21;;;;;;;3.83;1.27;;;8.90;95.30;;;;;;4990482;28;20058;-66
2023/01/14 03:49:49;;;;;;;3.88;1.17;;;8.90;95.40;;;;;;4994823;28;20041;-66
2023/01/14 03:52:36;;;;;;;2.88;0.90;;;8.90;95.40;;;;;;4993146;28;20173;-66
2023/01/14 03:55:16;;;;;;;3.00;1.17;;;8.90;95.30;;;;;;4992478;28;20038;-66
2023/01/14 03:57:56;;;;;;;3.08;1.00;;;8.80;95.50;;;;;;4989938;28;20395;-66
2023/01/14 04:00:45;;;;;;;7.53;1.48;;;8.80;95.60;;;;;;4992658;28;20042;-67
2023/01/14 04:03:14;;;;;;;4.38;0.98;;;8.80;95.80;;;;;;4991105;28;20039;-66
2023/01/14 04:05:40;;;;;;;1.67;0.90;;;8.90;95.30;;;;;;4992873;28;20454;-66
2023/01/14 04:08:07;;;;;;;5.60;1.95;;;8.90;95.30;;;;;;4994558;28;20064;-67
2023/01/14 04:10:33;;;;;;;2.45;0.82;;;8.90;95.00;;;;;;4986475;28;20084;-66
2023/01/14 04:15:44;;;;;;;2.38;0.95;;;8.90;94.90;;;;;;4989891;28;20037;-66
2023/01/14 04:18:10;;;;;;;4.85;1.00;;;8.90;94.70;;;;;;4992823;28;20038;-66
2023/01/14 04:20:36;;;;;;;3.13;0.93;;;8.90;94.80;;;;;;4998317;28;20038;-66
2023/01/14 04:23:02;;;;;;;5.65;1.10;;;9.00;94.60;;;;;;4990106;28;20034;-66
2023/01/14 04:25:27;;;;;;;2.72;0.90;;;9.00;94.50;;;;;;5008535;28;20376;-66
2023/01/14 04:27:53;;;;;;;3.92;1.00;;;8.90;94.70;;;;;;4990572;28;20038;-66
2023/01/14 04:30:19;;;;;;;6.20;1.10;;;8.70;95.10;;;;;;4993738;28;20034;-66
2023/01/14 04:32:45;;;;;;;4.38;1.08;;;8.70;95.10;;;;;;4989397;28;20384;-66
2023/01/14 04:35:11;;;;;;;4.22;0.88;;;8.60;95.10;;;;;;4994712;28;20037;-67
2023/01/14 04:37:37;;;;;;;4.32;1.55;;;8.60;94.90;;;;;;4983842;28;20092;-66
2023/01/14 04:40:04;;;;;;;5.25;1.10;;;8.80;95.00;;;;;;4990727;28;20034;-66
2023/01/14 04:42:31;;;;;;;5.95;1.13;;;8.90;94.80;;;;;;4992002;28;20041;-66
2023/01/14 04:45:03;;;;;;;3.53;0.95;;;8.90;94.40;;;;;;4989775;28;20371;-66
2023/01/14 04:47:30;;;;;;;2.97;1.13;;;8.90;94.40;;;;;;4994156;28;20049;-66
2023/01/14 04:49:56;;;;;;;5.72;1.10;;;9.00;94.20;;;;;;4992677;28;20121;-66
2023/01/14 04:52:23;;;;;;;6.63;1.10;;;8.90;93.80;;;;;;4990005;28;20040;-66
2023/01/14 04:54:50;;;;;;;4.47;1.88;;;8.80;94.30;;;;;;4991334;28;20113;-66
2023/01/14 04:57:16;;;;;;;2.42;0.85;;;8.80;94.20;;;;;;4986377;28;20038;-66
2023/01/14 04:59:42;;;;;;;5.85;1.42;;;8.70;94.50;;;;;;4988239;28;20538;-66
2023/01/14 05:02:08;;;;;;;5.75;1.05;;;8.70;94.60;;;;;;4987534;28;20085;-66
2023/01/14 05:04:35;;;;;;;2.80;1.17;;;8.70;94.40;;;;;;4998114;28;20034;-66
2023/01/14 05:07:02;;;;;;;6.25;1.70;;;8.70;94.60;;;;;;4991621;28;20042;-66
2023/01/14 05:09:29;;;;;;;3.50;0.75;;;8.80;94.60;;;;;;4991921;28;20801;-67
2023/01/14 05:11:55;;;;;;;1.40;0.80;;;8.90;94.10;;;;;;4994283;28;20070;-66
2023/01/14 05:14:21;;;;;;;4.80;1.20;;;8.90;93.80;;;;;;4990722;28;20121;-66
2023/01/14 05:16:46;;;;;;;4.00;1.00;;;8.90;94.20;;;;;;4992548;28;20030;-67
2023/01/14 05:19:12;;;;;;;2.42;0.93;;;8.90;94.10;;;;;;4990598;28;20521;-66
2023/01/14 05:21:38;;;;;;;3.75;0.95;;;8.90;93.80;;;;;;4991223;28;20557;-66
2023/01/14 05:24:04;;;;;;;3.63;1.20;;;8.80;94.10;;;;;;4986770;28;20943;-66
2023/01/14 05:26:30;;;;;;;3.92;1.23;;;8.70;94.20;;;;;;4992874;28;20034;-67
2023/01/14 05:28:55;;;;;;;2.63;0.90;;;8.70;94.40;;;;;;4992007;28;20132;-66
2023/01/14 05:31:21;;;;;;;3.42;1.15;;;8.60;94.50;;;;;;4984430;28;20474;-67
2023/01/14 05:33:47;;;;;;;4.40;1.42;;;8.80;94.50;;;;;;4992659;28;20055;-66
2023/01/14 05:36:13;;;;;;;2.80;0.60;;;8.70;94.30;;;;;;4991751;28;20417;-66
2023/01/14 05:38:38;;;;;;;5.00;1.00;;;8.60;94.60;;;;;;4986776;28;20037;-66
2023/01/14 05:41:04;;;;;;;3.30;1.10;;;8.50;94.50;;;;;;4993379;28;20046;-66
2023/01/14 05:46:17;;;;;;;8.98;1.30;;;8.30;95.30;;;;;;4991044;28;20048;-66
2023/01/14 05:48:43;;;;;;;2.55;1.05;;;8.40;95.20;;;;;;4991614;28;20440;-66
2023/01/14 05:51:13;;;;;;;5.28;1.23;;;8.50;95.00;;;;;;4995469;28;20038;-66
2023/01/14 05:53:39;;;;;;;3.67;1.00;;;8.40;94.90;;;;;;4982470;28;20031;-66
2023/01/14 05:56:06;;;;;;;2.55;0.90;;;8.40;95.10;;;;;;4996297;28;20037;-67
2023/01/14 05:58:32;;;;;;;3.63;0.95;;;8.30;95.40;;;;;;4993320;28;20410;-66
2023/01/14 06:06:39;;;;;;;3.67;1.10;;;8.20;96.10;;;;;;4984051;28;20038;-66
2023/01/14 06:09:07;;;;;;;4.03;1.15;;;8.30;96.10;;;;;;4989651;28;20455;-66
2023/01/14 06:11:34;;;;;;;7.07;1.23;;;8.40;96.20;;;;;;4992540;28;20037;-67
2023/01/14 06:14:01;;;;;;;2.35;1.02;;;8.30;96.50;;;;;;4994922;28;20034;-66
2023/01/14 06:16:31;;;;;;;6.50;1.23;;;8.20;96.60;;;;;;4995462;28;20033;-66
2023/01/14 06:18:58;;;;;;;2.65;1.38;;;8.10;97.30;;;;;;4994728;28;20088;-65
2023/01/14 06:21:29;;;;;;;2.60;1.20;;;8.10;97.60;;;;;;5002414;28;20029;-66
2023/01/14 06:23:57;;;;;;;3.10;0.90;;;8.10;97.90;;;;;;4996634;28;20034;-65
2023/01/14 06:26:29;;;;;;;3.95;1.27;;;8.10;97.80;;;;;;4996882;28;20980;-65
2023/01/14 06:29:15;;;;;;;3.80;1.83;;;8.30;97.60;;;;;;4985675;28;20121;-66
2023/01/14 06:31:41;;;;;;;5.63;2.45;;;8.20;97.80;;;;;;4988225;28;20030;-66
2023/01/14 06:34:07;;;;;;;15.90;8.85;;;8.20;97.90;;;;;;4997174;28;20042;-66
2023/01/14 06:36:34;;;;;;;11.20;5.18;;;8.20;98.20;;;;;;5000244;28;20509;-65
2023/01/14 06:39:00;;;;;;;5.30;3.50;;;8.20;98.20;;;;;;5005886;28;20100;-66
2023/01/14 06:41:26;;;;;;;3.75;1.95;;;8.10;98.00;;;;;;4996536;28;20030;-66
2023/01/14 06:43:52;;;;;;;5.03;1.75;;;8.00;98.40;;;;;;5000020;28;20039;-66
2023/01/14 06:46:18;;;;;;;3.55;1.42;;;8.00;98.70;;;;;;5004390;28;20041;-66
2023/01/14 06:48:45;;;;;;;8.02;2.75;;;8.00;99.00;;;;;;4999221;28;20034;-65
2023/01/14 06:51:14;;;;;;;6.50;1.80;;;7.90;99.50;;;;;;4997458;28;20033;-67
2023/01/14 06:53:41;;;;;;;11.15;3.67;;;7.90;99.80;;;;;;4992107;28;20030;-67
2023/01/14 06:56:12;;;;;;;5.82;3.03;;;7.90;99.60;;;;;;5010617;28;20030;-67
2023/01/14 06:58:39;;;;;;;9.80;4.22;;;7.90;99.30;;;;;;5000990;28;21678;-67
2023/01/14 07:01:05;;;;;;;1.77;0.90;;;8.00;99.50;;;;;;5005431;28;20549;-67
2023/01/14 07:03:31;;;;;;;1.90;0.77;;;7.90;99.60;;;;;;5005292;28;20029;-66
2023/01/14 07:05:59;;;;;;;2.10;1.00;;;8.00;99.70;;;;;;4997583;28;20034;-67
2023/01/14 07:08:26;;;;;;;2.97;0.80;;;8.00;99.60;;;;;;5004637;28;20569;-66
2023/01/14 07:10:52;;;;;;;2.88;0.90;;;8.00;99.60;;;;;;5009730;28;20036;-67
2023/01/14 07:13:20;;;;;;;2.35;0.95;;;8.10;99.30;;;;;;5001331;28;20038;-66
2023/01/14 07:15:47;;;;;;;4.88;0.85;;;8.10;99.30;;;;;;4998167;28;20030;-66
2023/01/14 07:18:13;;;;;;;2.40;0.80;;;8.20;99.10;;;;;;5003009;28;20026;-67
2023/01/14 07:20:40;;;;;;;26.15;10.73;;;8.30;98.70;;;;;;4993000;28;20033;-68
2023/01/14 07:23:06;;;;;;;10.73;2.58;;;8.20;98.70;;;;;;4994075;28;20118;-67
2023/01/14 07:25:32;;;;;;;2.88;1.00;;;8.10;98.90;;;;;;5004158;28;20837;-67
2023/01/14 07:27:58;;;;;;;6.90;1.67;;;8.00;98.80;;;;;;5002516;28;20568;-70
2023/01/14 07:30:24;;;;;;;3.05;0.93;;;8.10;98.60;;;;;;4996946;28;20048;-70
2023/01/14 07:32:50;;;;;;;2.08;1.02;;;8.00;98.70;;;;;;5004328;28;20092;-70
2023/01/14 07:35:15;;;;;;;2.05;1.13;;;8.00;98.50;;;;;;4996025;28;20142;-68
2023/01/14 07:37:41;;;;;;;2.03;0.95;;;8.10;98.20;;;;;;5004348;28;20053;-69
2023/01/14 07:40:08;;;;;;;3.55;0.90;;;8.00;98.40;;;;;;5004692;28;20034;-69
2023/01/14 07:42:33;;;;;;;5.43;0.90;;;7.90;98.70;;;;;;4996563;28;20031;-69
2023/01/14 07:44:59;;;;;;;2.78;0.90;;;8.00;98.70;;;;;;4999420;28;20100;-69
2023/01/14 07:47:25;;;;;;;7.68;1.90;;;8.00;98.20;;;;;;4996813;28;20049;-68
2023/01/14 07:49:51;;;;;;;4.70;1.48;;;8.00;98.40;;;;;;4995583;28;20140;-69
2023/01/14 07:52:16;;;;;;;3.10;1.00;;;7.90;98.30;;;;;;4999582;28;20029;-67
2023/01/14 07:54:43;;;;;;;3.13;1.17;;;7.90;98.20;;;;;;4996846;28;20406;-66
2023/01/14 07:57:10;;;;;;;3.40;1.30;;;7.90;98.40;;;;;;4994648;28;20030;-69
2023/01/14 07:59:37;;;;;;;4.03;1.10;;;8.00;98.10;;;;;;4998276;28;20092;-69
2023/01/14 08:02:03;;;;;;;6.82;1.58;;;8.00;97.90;;;;;;4995458;28;20586;-69
2023/01/14 08:04:29;;;;;;;3.83;1.30;;;8.10;97.90;;;;;;5001527;28;20034;-66
2023/01/14 08:06:56;;;;;;;6.28;1.00;;;8.10;97.60;;;;;;5002671;28;20044;-66
2023/01/14 08:09:23;;;;;;;6.47;1.38;;;8.20;97.30;;;;;;4995039;28;20038;-67
2023/01/14 08:11:49;;;;;;;6.68;2.15;;;8.20;97.30;;;;;;5012246;28;20120;-66
2023/01/14 08:14:14;;;;;;;7.43;1.27;;;8.10;97.00;;;;;;4997908;28;20129;-66
2023/01/14 08:16:40;;;;;;;4.93;1.10;;;8.00;97.60;;;;;;4996520;28;20068;-67
2023/01/14 08:19:06;;;;;;;3.80;1.02;;;8.00;97.70;;;;;;5003204;28;20100;-67
2023/01/14 08:21:32;;;;;;;8.95;1.30;;;8.00;97.60;;;;;;5000739;28;20052;-65
2023/01/14 08:23:58;;;;;;;5.43;0.98;;;8.00;97.20;;;;;;4994179;28;20030;-67
2023/01/14 08:26:24;;;;;;;6.60;1.05;;;8.00;97.50;;;;;;4997259;28;20397;-67
2023/01/14 08:28:49;;;;;;;3.80;0.63;;;8.10;97.40;;;;;;5001034;28;20033;-67
2023/01/14 08:31:17;;;;;;;5.65;0.93;;;8.30;96.70;;;;;;4998698;28;20037;-66
2023/01/14 08:33:44;;;;;;;5.20;1.20;;;8.30;96.70;;;;;;4992768;28;20569;-67
2023/01/14 08:36:15;;;;;;;6.13;1.00;;;8.30;96.70;;;;;;4990630;28;20033;-65
2023/01/14 08:38:48;;;;;;;6.35;0.98;;;8.40;96.30;;;;;;5000447;28;20025;-67
2023/01/14 08:41:17;;;;;;;;;;;8.40;96.10;;;;;;5003791;28;20026;-67
2023/01/14 08:43:47;;;;;;;5.22;1.02;;;8.20;96.10;;;;;;4997127;28;19909;-66
2023/01/14 08:46:12;;;;;;;6.65;1.00;;;8.20;96.50;;;;;;4990416;28;20050;-66
2023/01/14 08:48:38;;;;;;;5.07;0.90;;;8.20;96.60;;;;;;4993056;28;20026;-65
2023/01/14 08:51:06;;;;;;;6.05;1.00;;;8.30;96.20;;;;;;5003772;28;20045;-66
2023/01/14 08:53:35;;;;;;;3.67;1.65;;;8.20;96.40;;;;;;4993535;28;20108;-65
2023/01/14 08:56:03;;;;;;;3.38;1.00;;;8.10;96.40;;;;;;5005762;28;20120;-66
2023/01/14 08:58:29;;;;;;;7.07;1.50;;;8.30;96.20;;;;;;5010493;28;20061;-66
2023/01/14 09:01:06;;;;;;;7.22;1.30;;;8.40;95.70;;;;;;4990936;28;20160;-66
2023/01/14 09:03:35;;;;;;;10.00;1.48;;;8.60;95.50;;;;;;4997677;28;20033;-66
2023/01/14 09:06:11;;;;;;;8.63;1.13;;;8.70;95.00;;;;;;4999183;28;20034;-64
2023/01/14 09:17:08;;;;;;;5.18;1.15;;;8.60;94.80;;;;;;4999086;28;20096;-65
2023/01/14 09:19:41;;;;;;;2.78;0.73;;;8.70;94.80;;;;;;4992826;28;20076;-65
2023/01/14 09:22:10;;;;;;;8.10;1.35;;;8.80;94.30;;;;;;4987018;28;20101;-65
2023/01/14 09:24:36;;;;;;;10.40;1.02;;;8.80;94.10;;;;;;4993223;28;20033;-65
2023/01/14 09:27:02;;;;;;;11.73;1.20;;;8.80;93.90;;;;;;4999305;28;20064;-64
2023/01/14 09:29:28;;;;;;;5.78;1.20;;;8.80;94.10;;;;;;4997928;28;20030;-65
2023/01/14 09:31:53;;;;;;;6.47;1.70;;;8.80;94.00;;;;;;4993944;28;20227;-65
2023/01/14 09:34:19;;;;;;;7.75;1.50;;;8.80;94.10;;;;;;4997552;28;20040;-65
2023/01/14 09:36:45;;;;;;;7.82;2.58;;;8.90;94.10;;;;;;4994842;28;20065;-66
2023/01/14 09:39:11;;;;;;;10.00;2.20;;;9.10;94.00;;;;;;4980406;28;20049;-65
2023/01/14 09:41:46;;;;;;;7.63;2.15;;;9.30;93.10;;;;;;4996000;28;20455;-66
2023/01/14 09:44:12;;;;;;;8.73;1.42;;;9.60;92.50;;;;;;4991574;28;20727;-65
2023/01/14 09:46:38;;;;;;;10.02;1.88;;;10.20;91.20;;;;;;4997090;28;20029;-65
2023/01/14 09:49:05;;;;;;;8.18;1.60;;;10.60;89.90;;;;;;4996693;28;20100;-65
2023/01/14 09:51:55;;;;;;;7.40;1.23;;;11.10;87.80;;;;;;4991303;28;20048;-66
2023/01/14 09:54:30;;;;;;;10.02;1.60;;;11.70;84.20;;;;;;4998255;28;20065;-64
2023/01/14 09:57:02;;;;;;;4.53;1.50;;;12.20;80.50;;;;;;5003574;28;20048;-64
2023/01/14 09:59:36;;;;;;;11.60;2.03;;;12.30;80.90;;;;;;4997372;28;20093;-64
2023/01/14 10:02:15;;;;;;;10.00;1.45;;;12.50;79.80;;;;;;4982698;28;20109;-65
2023/01/14 10:04:40;;;;;;;11.65;1.60;;;12.30;78.90;;;;;;5002902;28;20033;-64
2023/01/14 10:07:11;;;;;;;7.47;1.67;;;12.20;78.40;;;;;;4992209;28;20041;-65
2023/01/14 10:09:50;;;;;;;7.68;1.55;;;11.90;79.60;;;;;;4996269;28;20037;-64
2023/01/14 10:12:26;;;;;;;10.70;1.48;;;11.80;78.50;;;;;;5000215;28;20040;-64
2023/01/14 10:15:17;;;;;;;10.35;2.22;;;11.40;81.40;;;;;;4989079;28;20026;-65
2023/01/14 10:17:48;;;;;;;11.95;2.13;;;10.80;84.10;;;;;;4998346;28;20044;-64
2023/01/14 10:20:21;;;;;;;8.57;2.13;;;10.50;85.70;;;;;;5009121;28;20062;-67
2023/01/14 10:22:52;;;;;;;6.20;1.40;;;10.50;85.20;;;;;;4999222;28;20036;-64
2023/01/14 10:25:22;;;;;;;8.70;1.65;;;10.60;85.90;;;;;;4992265;28;20033;-65
2023/01/14 10:27:53;;;;;;;11.20;2.15;;;10.50;85.60;;;;;;5003279;28;20088;-65
2023/01/14 10:30:21;;;;;;;9.18;1.40;;;10.90;84.40;;;;;;4995454;28;20518;-65
2023/01/14 10:32:51;;;;;;;11.98;2.40;;;11.00;84.20;;;;;;5000629;28;20038;-65
2023/01/14 10:35:27;;;;;;;6.97;1.30;;;10.90;83.70;;;;;;5016956;28;20037;-65
2023/01/14 10:37:54;;;;;;;10.02;1.80;;;10.50;85.50;;;;;;4996370;28;20057;-67
2023/01/14 10:40:23;;;;;;;12.13;1.55;;;10.30;85.70;;;;;;5000589;28;20031;-63
2023/01/14 10:42:51;;;;;;;9.45;2.35;;;10.20;86.60;;;;;;5001991;28;20030;-63
2023/01/14 10:45:17;;;;;;;6.18;1.40;;;10.10;86.10;;;;;;4997584;28;20141;-64
2023/01/14 10:47:45;;;;;;;9.18;1.48;;;10.20;86.60;;;;;;4990758;28;20111;-64
2023/01/14 10:50:16;;;;;;;11.40;1.35;;;10.30;85.50;;;;;;4988477;28;20447;-64
2023/01/14 10:52:43;;;;;;;5.90;1.48;;;10.20;84.20;;;;;;4996828;28;20060;-64
2023/01/14 10:55:25;;;;;;;8.15;1.40;;;10.30;85.70;;;;;;4992116;28;20074;-65
2023/01/14 10:58:06;;;;;;;10.32;1.77;;;10.40;84.50;;;;;;5002016;28;20037;-64
2023/01/14 11:00:38;;;;;;;7.72;1.55;;;10.30;84.10;;;;;;4997001;28;20034;-64
2023/01/14 11:03:08;;;;;;;11.63;1.83;;;10.10;85.10;;;;;;5000287;28;20041;-64
2023/01/14 11:05:37;;;;;;;8.65;1.95;;;10.20;84.40;;;;;;4991847;28;20209;-64
2023/01/14 11:08:20;;;;;;;5.93;1.20;;;10.30;84.60;;;;;;5004644;28;20441;-64
2023/01/14 11:10:54;;;;;;;11.95;2.03;;;10.30;83.70;;;;;;5003182;28;20044;-64
2023/01/14 11:13:48;;;;;;;11.15;1.73;;;10.10;85.80;;;;;;5005467;28;20041;-64
2023/01/14 11:16:25;;;;;;;9.10;2.10;;;9.90;85.90;;;;;;5005740;28;20051;-64
2023/01/14 11:18:59;;;;;;;6.25;1.30;;;10.10;85.70;;;;;;4989664;28;20044;-63
2023/01/14 11:21:33;;;;;;;6.97;1.58;;;10.00;85.70;;;;;;4990804;28;20764;-63
2023/01/14 11:24:07;;;;;;;8.23;2.42;;;9.80;86.00;;;;;;4995281;28;20128;-64
2023/01/14 11:26:36;;;;;;;6.95;2.00;;;9.80;87.00;;;;;;4999801;28;20457;-65
2023/01/14 11:29:25;;;;;;;12.15;1.80;;;9.60;85.30;;;;;;4999814;28;20034;-69
2023/01/14 11:32:15;;;;;;;8.80;1.25;;;9.50;87.40;;;;;;4998552;28;20030;-65
2023/01/14 11:34:52;;;;;;;6.82;1.15;;;9.50;86.20;;;;;;5002364;28;20398;-68
2023/01/14 11:37:21;;;;;;;5.78;1.20;;;9.70;86.20;;;;;;5000249;28;20034;-64
2023/01/14 11:39:54;;;;;;;7.32;1.33;;;9.70;84.90;;;;;;4993483;28;20074;-65
2023/01/14 11:42:40;;;;;;;4.78;1.45;;;9.70;86.10;;;;;;4991313;28;20589;-65
2023/01/14 11:45:12;;;;;;;7.13;1.35;;;9.70;85.90;;;;;;4992490;28;20069;-64
2023/01/14 11:47:57;;;;;;;6.57;1.38;;;9.70;85.10;;;;;;4995018;28;20136;-65
2023/01/14 11:50:32;;;;;;;9.57;1.60;;;9.60;85.90;;;;;;5011474;28;20586;-64
2023/01/14 11:53:01;;;;;;;7.55;1.30;;;9.50;85.70;;;;;;4998226;28;20089;-65
2023/01/14 11:55:30;;;;;;;9.63;1.85;;;9.40;86.10;;;;;;4990888;28;20065;-64
2023/01/14 11:58:14;;;;;;;12.85;2.58;;;9.50;86.80;;;;;;4996573;28;20038;-66
2023/01/14 12:01:04;;;;;;;7.45;1.40;;;9.50;86.10;;;;;;5000179;28;20060;-65
2023/01/14 12:03:45;;;;;;;13.45;1.58;;;9.40;86.40;;;;;;4997097;28;20398;-65
2023/01/14 12:06:24;;;;;;;8.23;1.25;;;9.20;87.20;;;;;;4989469;28;20053;-65
2023/01/14 12:08:54;;;;;;;6.07;1.10;;;9.30;87.80;;;;;;4992299;28;20071;-67
2023/01/14 12:11:26;;;;;;;6.93;1.23;;;9.40;88.00;;;;;;4993532;28;20126;-65
2023/01/14 12:16:59;;;;;;;8.38;1.45;;;9.50;86.60;;;;;;4994362;28;20146;-65
2023/01/14 12:19:52;;;;;;;9.25;1.23;;;9.50;86.70;;;;;;4995871;28;20042;-65
2023/01/14 12:22:39;;;;;;;8.68;1.67;;;9.50;87.40;;;;;;4991672;28;20037;-65
2023/01/14 12:25:11;;;;;;;6.03;1.38;;;9.40;86.70;;;;;;4990803;28;20116;-65
2023/01/14 12:27:43;;;;;;;8.93;2.17;;;9.30;86.60;;;;;;4999650;28;20100;-65
2023/01/14 12:30:15;;;;;;;7.60;1.67;;;9.30;87.20;;;;;;4995791;28;20431;-65
2023/01/14 12:32:56;;;;;;;9.07;1.83;;;9.20;87.20;;;;;;4985715;28;20034;-65
2023/01/14 12:35:24;;;;;;;12.98;1.73;;;9.30;88.50;;;;;;4989666;28;20222;-64
2023/01/14 12:38:02;;;;;;;7.43;1.55;;;9.40;87.70;;;;;;4992452;28;20113;-65
2023/01/14 12:46:12;;;;;;;6.75;1.40;;;9.30;87.20;;;;;;4988544;28;20092;-65
2023/01/14 12:48:39;;;;;;;8.02;1.25;;;9.20;88.00;;;;;;4997866;28;20701;-66
2023/01/14 12:51:19;;;;;;;8.75;1.55;;;9.10;87.20;;;;;;4997120;28;20030;-65
2023/01/14 12:54:06;;;;;;;6.97;1.55;;;9.20;87.80;;;;;;4989190;28;20438;-66
2023/01/14 12:56:48;;;;;;;7.43;1.10;;;9.20;87.20;;;;;;4993836;28;20068;-71
2023/01/14 12:59:29;;;;;;;10.10;1.58;;;9.30;87.20;;;;;;5002324;28;20056;-63
2023/01/14 13:02:00;;;;;;;6.35;1.05;;;9.20;87.60;;;;;;4996321;28;20025;-64
2023/01/14 13:04:46;;;;;;;4.05;1.23;;;9.30;87.40;;;;;;5002925;28;20049;-65
2023/01/14 13:07:36;;;;;;;8.70;1.17;;;9.30;86.60;;;;;;5003257;28;20092;-65
2023/01/14 13:10:06;;;;;;;5.50;1.20;;;9.40;87.00;;;;;;4996974;28;20034;-65
2023/01/14 13:12:37;;;;;;;8.10;1.60;;;9.20;87.70;;;;;;4992018;28;20103;-64
2023/01/14 13:15:17;;;;;;;6.55;1.77;;;9.20;88.00;;;;;;4999248;28;20113;-64
2023/01/14 13:17:49;;;;;;;8.43;2.08;;;9.20;88.20;;;;;;4991342;28;20125;-64
2023/01/14 13:20:18;;;;;;;6.68;1.52;;;9.20;89.40;;;;;;5005537;28;20038;-64
2023/01/14 13:22:50;;;;;;;5.80;1.30;;;9.20;89.10;;;;;;4992449;28;20048;-64
2023/01/14 13:25:42;;;;;;;8.23;1.35;;;9.20;88.50;;;;;;4999506;28;20032;-64
2023/01/14 13:28:11;;;;;;;8.20;1.55;;;9.30;88.20;;;;;;5005230;28;20033;-66
2023/01/14 13:31:20;;;;;;;8.32;1.92;;;9.30;88.70;;;;;;4998606;28;20080;-66
2023/01/14 13:34:05;;;;;;;5.25;1.20;;;9.30;88.70;;;;;;4992289;28;20034;-65
2023/01/14 13:36:31;;;;;;;9.83;1.70;;;9.30;88.00;;;;;;4991993;28;20030;-66
2023/01/14 13:39:05;;;;;;;10.23;1.73;;;9.30;88.30;;;;;;4991747;28;20794;-67
2023/01/14 13:41:38;;;;;;;7.38;1.95;;;9.30;87.90;;;;;;4997268;28;20394;-66
2023/01/14 13:44:13;;;;;;;7.20;1.40;;;9.20;88.70;;;;;;4999630;28;20029;-66
2023/01/14 13:46:39;;;;;;;6.30;1.30;;;9.20;88.40;;;;;;4999269;28;20022;-66
2023/01/14 13:49:20;;;;;;;12.10;2.05;;;9.10;88.90;;;;;;4987930;28;20050;-68